createdAt,value
2018-09-13T00:06:07.969Z,23.5
2018-09-13T00:16:09.989Z,23.5
2018-09-13T00:26:11.629Z,23.4
2018-09-13T00:36:13.857Z,23.4
2018-09-13T00:46:15.661Z,23.3
2018-09-13T00:56:17.491Z,23.3
2018-09-13T01:06:19.428Z,23.3
2018-09-13T01:16:21.505Z,23.3
2018-09-13T01:26:22.905Z,23.2
2018-09-13T01:36:24.446Z,23.2
2018-09-13T01:46:26.848Z,23.2
2018-09-13T01:56:28.772Z,23.2
2018-09-13T02:06:31.024Z,23.2
2018-09-13T02:16:33.408Z,23.2
2018-09-13T02:26:35.325Z,23.2
2018-09-13T02:36:37.963Z,23.2
2018-09-13T02:46:40.036Z,23.2
2018-09-13T02:56:42.298Z,23.1
2018-09-13T03:06:44.164Z,23.1
2018-09-13T03:16:45.997Z,23.1
2018-09-13T03:26:48.334Z,23.1
2018-09-13T03:36:50.361Z,23
2018-09-13T03:46:51.949Z,23
2018-09-13T03:56:54.072Z,23
2018-09-13T04:06:56.338Z,23
2018-09-13T04:16:58.304Z,22.8
2018-09-13T04:27:00.114Z,22.8
2018-09-13T04:37:01.937Z,22.6
2018-09-13T04:47:03.760Z,22.6
2018-09-13T04:57:05.212Z,22.7
2018-09-13T05:07:07.300Z,22.8
2018-09-13T05:17:09.165Z,22.7
2018-09-13T05:27:10.696Z,22.8
2018-09-13T05:37:12.403Z,22.9
2018-09-13T05:47:14.766Z,23
2018-09-13T05:57:16.664Z,23
2018-09-13T06:07:18.618Z,23.1
2018-09-13T06:17:20.083Z,23.1
2018-09-13T06:27:22.392Z,23.1
2018-09-13T06:37:24.738Z,23.1
2018-09-13T06:47:26.808Z,23.2
2018-09-13T06:57:29.283Z,23.2
2018-09-13T07:07:31.142Z,23.2
2018-09-13T07:17:33.120Z,23.2
2018-09-13T07:27:35.071Z,23.3
2018-09-13T07:37:37.205Z,23.3
2018-09-13T07:47:39.165Z,23.3
2018-09-13T07:57:41.255Z,23.3
2018-09-13T08:07:43.537Z,23.3
2018-09-13T08:17:45.188Z,23.3
2018-09-13T08:27:47.102Z,23.3
2018-09-13T08:37:48.709Z,23.4
2018-09-13T08:47:51.107Z,23.4
2018-09-13T08:57:52.891Z,23.4
2018-09-13T09:07:55.208Z,23.4
2018-09-13T09:17:57.025Z,23.4
2018-09-13T09:27:58.619Z,23.4
2018-09-13T09:38:00.222Z,23.5
2018-09-13T09:48:02.353Z,23.5
2018-09-13T09:58:04.495Z,23.5
2018-09-13T10:08:06.190Z,23.5
2018-09-13T10:18:07.620Z,23.5
2018-09-13T10:28:09.887Z,23.5
2018-09-13T10:38:11.713Z,23.5
2018-09-13T10:48:13.870Z,23.6
2018-09-13T10:58:15.340Z,23.6
2018-09-13T11:08:17.241Z,23.6
2018-09-13T11:18:19.240Z,23.6
2018-09-13T11:28:21.257Z,23.6
2018-09-13T11:38:23.341Z,23.6
2018-09-13T11:48:25.787Z,23.6
2018-09-13T11:58:28.237Z,23.6
2018-09-13T12:08:30.343Z,23.6
2018-09-13T12:18:32.381Z,23.6
2018-09-13T12:28:34.039Z,23.6
2018-09-13T12:38:35.878Z,23.6
2018-09-13T12:48:37.908Z,23.6
2018-09-13T12:58:39.752Z,23.6
2018-09-13T13:08:41.602Z,23.6
2018-09-13T13:18:43.706Z,23.6
2018-09-13T13:28:45.241Z,23.6
2018-09-13T13:38:47.227Z,23.6
2018-09-13T13:48:48.812Z,23.6
2018-09-13T13:58:50.787Z,23.6
2018-09-13T14:08:52.566Z,23.6
2018-09-13T14:18:53.790Z,23.6
2018-09-13T14:28:55.602Z,23.6
2018-09-13T14:38:57.578Z,23.6
2018-09-13T14:48:59.488Z,23.6
2018-09-13T14:59:01.830Z,23.6
2018-09-13T15:09:03.632Z,23.7
2018-09-13T15:19:05.022Z,23.5
2018-09-13T15:29:06.891Z,23.3
2018-09-13T15:39:08.897Z,23.3
2018-09-13T15:49:10.727Z,23.3
2018-09-13T15:59:12.580Z,23.5
2018-09-13T16:09:14.491Z,23.7
2018-09-13T16:19:16.627Z,23.6
2018-09-13T16:29:18.618Z,23.9
2018-09-13T16:39:20.193Z,24.2
2018-09-13T16:49:22.564Z,24.4
2018-09-13T16:59:25.331Z,24.6
2018-09-13T17:09:27.561Z,24.7
2018-09-13T17:19:29.789Z,24.8
2018-09-13T17:29:31.521Z,24.8
2018-09-13T17:39:33.618Z,24.9
2018-09-13T17:49:35.908Z,25
2018-09-13T17:59:38.211Z,25
2018-09-13T18:09:40.294Z,24.8
2018-09-13T18:19:41.956Z,24.6
2018-09-13T18:29:44.468Z,24.6
2018-09-13T18:39:46.281Z,24.5
2018-09-13T18:49:48.043Z,24.5
2018-09-13T18:59:50.137Z,24.5
2018-09-13T19:09:52.010Z,24.4
2018-09-13T19:19:53.017Z,24.4
2018-09-13T19:29:55.255Z,24.3
2018-09-13T19:39:57.366Z,24.3
2018-09-13T19:49:59.504Z,24.3
2018-09-13T20:00:01.074Z,24.2
2018-09-13T20:10:02.636Z,24.2
2018-09-13T20:20:04.395Z,24.2
2018-09-13T20:30:06.586Z,24.2
2018-09-13T20:40:07.931Z,24.1
2018-09-13T20:50:09.467Z,24
2018-09-13T21:00:11.487Z,23.9
2018-09-13T21:10:13.262Z,23.7
2018-09-13T21:20:15.348Z,23.7
2018-09-13T21:30:17.162Z,23.6
2018-09-13T21:40:19.163Z,23.5
2018-09-13T21:50:20.736Z,23.5
2018-09-13T22:00:22.123Z,23.4
2018-09-13T22:10:24.137Z,23.4
2018-09-13T22:20:26.420Z,23.3
2018-09-13T22:30:28.583Z,23.2
2018-09-13T22:40:30.764Z,23.1
2018-09-13T22:50:32.322Z,23.1
2018-09-13T23:00:34.788Z,23
2018-09-13T23:10:36.769Z,23
2018-09-13T23:20:39.023Z,23
2018-09-13T23:30:41.013Z,22.9
2018-09-13T23:40:42.488Z,22.9
2018-09-13T23:50:44.101Z,22.8
